sensor_id;sensor_type;location;lat;lon;timestamp;temperature;humidity
64468;DHT22;50853;46.836;16.820;2024-02-21T00:00:22;10.10;92.50
64468;DHT22;50853;46.836;16.820;2024-02-21T00:02:48;10.10;92.50
64468;DHT22;50853;46.836;16.820;2024-02-21T00:05:14;10.20;92.50
64468;DHT22;50853;46.836;16.820;2024-02-21T00:07:39;10.10;92.40
64468;DHT22;50853;46.836;16.820;2024-02-21T00:10:06;10.20;92.40
64468;DHT22;50853;46.836;16.820;2024-02-21T00:12:31;10.10;92.40
64468;DHT22;50853;46.836;16.820;2024-02-21T00:14:57;10.10;92.40
64468;DHT22;50853;46.836;16.820;2024-02-21T00:17:23;10.10;92.30
64468;DHT22;50853;46.836;16.820;2024-02-21T00:19:49;10.10;92.30
64468;DHT22;50853;46.836;16.820;2024-02-21T00:22:15;10.10;92.30
64468;DHT22;50853;46.836;16.820;2024-02-21T00:24:40;10.10;92.30
64468;DHT22;50853;46.836;16.820;2024-02-21T00:27:07;10.10;92.20
64468;DHT22;50853;46.836;16.820;2024-02-21T00:29:33;10.20;92.30
64468;DHT22;50853;46.836;16.820;2024-02-21T00:31:59;10.10;92.20
64468;DHT22;50853;46.836;16.820;2024-02-21T00:34:25;10.10;92.20
64468;DHT22;50853;46.836;16.820;2024-02-21T00:36:51;10.10;92.20
64468;DHT22;50853;46.836;16.820;2024-02-21T00:39:17;10.10;92.20
64468;DHT22;50853;46.836;16.820;2024-02-21T00:41:43;10.10;92.20
64468;DHT22;50853;46.836;16.820;2024-02-21T00:44:08;10.10;92.20
64468;DHT22;50853;46.836;16.820;2024-02-21T00:46:36;10.10;92.20
64468;DHT22;50853;46.836;16.820;2024-02-21T00:49:04;10.00;92.10
64468;DHT22;50853;46.836;16.820;2024-02-21T00:51:30;10.10;92.20
64468;DHT22;50853;46.836;16.820;2024-02-21T00:53:56;10.10;92.20
64468;DHT22;50853;46.836;16.820;2024-02-21T00:56:22;10.10;92.10
64468;DHT22;50853;46.836;16.820;2024-02-21T00:58:47;10.00;92.00
64468;DHT22;50853;46.836;16.820;2024-02-21T01:01:13;10.10;92.00
64468;DHT22;50853;46.836;16.820;2024-02-21T01:03:46;10.10;92.00
64468;DHT22;50853;46.836;16.820;2024-02-21T01:06:12;10.10;92.00
64468;DHT22;50853;46.836;16.820;2024-02-21T01:08:38;10.10;92.00
64468;DHT22;50853;46.836;16.820;2024-02-21T01:11:03;10.00;92.00
64468;DHT22;50853;46.836;16.820;2024-02-21T01:13:29;10.10;92.00
64468;DHT22;50853;46.836;16.820;2024-02-21T01:15:55;10.00;91.90
64468;DHT22;50853;46.836;16.820;2024-02-21T01:18:21;10.10;92.00
64468;DHT22;50853;46.836;16.820;2024-02-21T01:20:46;10.00;91.90
64468;DHT22;50853;46.836;16.820;2024-02-21T01:23:12;10.00;91.80
64468;DHT22;50853;46.836;16.820;2024-02-21T01:25:38;10.00;91.90
64468;DHT22;50853;46.836;16.820;2024-02-21T01:28:04;10.00;91.80
64468;DHT22;50853;46.836;16.820;2024-02-21T01:30:30;10.00;91.90
64468;DHT22;50853;46.836;16.820;2024-02-21T01:32:56;10.00;91.80
64468;DHT22;50853;46.836;16.820;2024-02-21T01:35:21;10.00;91.70
64468;DHT22;50853;46.836;16.820;2024-02-21T01:37:47;10.00;91.70
64468;DHT22;50853;46.836;16.820;2024-02-21T01:40:14;10.00;91.70
64468;DHT22;50853;46.836;16.820;2024-02-21T01:42:40;10.00;91.60
64468;DHT22;50853;46.836;16.820;2024-02-21T01:45:06;10.00;91.70
64468;DHT22;50853;46.836;16.820;2024-02-21T01:47:32;10.00;91.80
64468;DHT22;50853;46.836;16.820;2024-02-21T01:49:59;10.00;91.70
64468;DHT22;50853;46.836;16.820;2024-02-21T01:52:25;10.00;91.70
64468;DHT22;50853;46.836;16.820;2024-02-21T01:54:50;10.00;91.70
64468;DHT22;50853;46.836;16.820;2024-02-21T01:57:16;10.00;91.80
64468;DHT22;50853;46.836;16.820;2024-02-21T01:59:42;10.00;91.70
64468;DHT22;50853;46.836;16.820;2024-02-21T02:02:08;10.00;91.70
64468;DHT22;50853;46.836;16.820;2024-02-21T02:04:34;10.00;91.70
64468;DHT22;50853;46.836;16.820;2024-02-21T02:07:02;10.00;91.70
64468;DHT22;50853;46.836;16.820;2024-02-21T02:09:31;10.00;91.70
64468;DHT22;50853;46.836;16.820;2024-02-21T02:11:56;10.00;91.70
64468;DHT22;50853;46.836;16.820;2024-02-21T02:14:23;10.00;91.70
64468;DHT22;50853;46.836;16.820;2024-02-21T02:16:49;9.90;91.60
64468;DHT22;50853;46.836;16.820;2024-02-21T02:19:15;10.00;91.50
64468;DHT22;50853;46.836;16.820;2024-02-21T02:21:53;9.90;91.60
64468;DHT22;50853;46.836;16.820;2024-02-21T02:24:24;10.00;91.60
64468;DHT22;50853;46.836;16.820;2024-02-21T02:26:51;9.90;91.70
64468;DHT22;50853;46.836;16.820;2024-02-21T02:29:17;9.90;91.50
64468;DHT22;50853;46.836;16.820;2024-02-21T02:31:43;10.00;91.50
64468;DHT22;50853;46.836;16.820;2024-02-21T02:34:08;9.90;91.50
64468;DHT22;50853;46.836;16.820;2024-02-21T02:36:35;9.90;91.50
64468;DHT22;50853;46.836;16.820;2024-02-21T02:39:01;9.90;91.50
64468;DHT22;50853;46.836;16.820;2024-02-21T02:41:27;9.90;91.60
64468;DHT22;50853;46.836;16.820;2024-02-21T02:43:53;9.90;91.50
64468;DHT22;50853;46.836;16.820;2024-02-21T02:46:19;9.90;91.50
64468;DHT22;50853;46.836;16.820;2024-02-21T02:48:45;9.90;91.60
64468;DHT22;50853;46.836;16.820;2024-02-21T02:51:11;9.90;91.60
64468;DHT22;50853;46.836;16.820;2024-02-21T02:53:36;9.90;91.50
64468;DHT22;50853;46.836;16.820;2024-02-21T02:56:02;9.90;91.50
64468;DHT22;50853;46.836;16.820;2024-02-21T02:58:28;9.90;91.40
64468;DHT22;50853;46.836;16.820;2024-02-21T03:00:54;9.90;91.40
64468;DHT22;50853;46.836;16.820;2024-02-21T03:03:20;9.90;91.60
64468;DHT22;50853;46.836;16.820;2024-02-21T03:05:46;9.90;91.50
64468;DHT22;50853;46.836;16.820;2024-02-21T03:08:11;9.90;91.40
64468;DHT22;50853;46.836;16.820;2024-02-21T03:10:37;9.90;91.40
64468;DHT22;50853;46.836;16.820;2024-02-21T03:13:03;9.90;91.30
64468;DHT22;50853;46.836;16.820;2024-02-21T03:15:29;9.90;91.40
64468;DHT22;50853;46.836;16.820;2024-02-21T03:17:55;9.90;91.40
64468;DHT22;50853;46.836;16.820;2024-02-21T03:20:22;9.90;91.40
64468;DHT22;50853;46.836;16.820;2024-02-21T03:22:48;9.90;91.30
64468;DHT22;50853;46.836;16.820;2024-02-21T03:25:13;9.90;91.30
64468;DHT22;50853;46.836;16.820;2024-02-21T03:27:40;9.80;91.30
64468;DHT22;50853;46.836;16.820;2024-02-21T03:30:06;9.90;91.30
64468;DHT22;50853;46.836;16.820;2024-02-21T03:32:32;9.90;91.30
64468;DHT22;50853;46.836;16.820;2024-02-21T03:34:58;9.90;91.30
64468;DHT22;50853;46.836;16.820;2024-02-21T03:37:24;9.90;91.30
64468;DHT22;50853;46.836;16.820;2024-02-21T03:39:50;9.90;91.50
64468;DHT22;50853;46.836;16.820;2024-02-21T03:42:15;9.80;91.40
64468;DHT22;50853;46.836;16.820;2024-02-21T03:44:41;9.80;91.20
64468;DHT22;50853;46.836;16.820;2024-02-21T03:47:07;9.80;91.40
64468;DHT22;50853;46.836;16.820;2024-02-21T03:49:36;9.80;91.40
64468;DHT22;50853;46.836;16.820;2024-02-21T03:52:02;9.80;91.30
64468;DHT22;50853;46.836;16.820;2024-02-21T03:54:28;9.80;91.30
64468;DHT22;50853;46.836;16.820;2024-02-21T03:56:54;9.80;91.30
64468;DHT22;50853;46.836;16.820;2024-02-21T03:59:20;9.80;91.40
64468;DHT22;50853;46.836;16.820;2024-02-21T04:01:52;9.80;91.40
64468;DHT22;50853;46.836;16.820;2024-02-21T04:04:18;9.80;91.50
64468;DHT22;50853;46.836;16.820;2024-02-21T04:06:48;9.80;91.50
64468;DHT22;50853;46.836;16.820;2024-02-21T04:09:14;9.80;91.40
64468;DHT22;50853;46.836;16.820;2024-02-21T04:11:40;9.80;91.50
64468;DHT22;50853;46.836;16.820;2024-02-21T04:14:06;9.80;91.20
64468;DHT22;50853;46.836;16.820;2024-02-21T04:16:32;9.80;91.20
64468;DHT22;50853;46.836;16.820;2024-02-21T04:18:58;9.80;91.10
64468;DHT22;50853;46.836;16.820;2024-02-21T04:21:24;9.80;91.10
64468;DHT22;50853;46.836;16.820;2024-02-21T04:23:50;9.80;91.20
64468;DHT22;50853;46.836;16.820;2024-02-21T04:26:16;9.80;91.20
64468;DHT22;50853;46.836;16.820;2024-02-21T04:28:44;9.80;91.30
64468;DHT22;50853;46.836;16.820;2024-02-21T04:31:10;9.80;91.50
64468;DHT22;50853;46.836;16.820;2024-02-21T04:33:36;9.80;91.30
64468;DHT22;50853;46.836;16.820;2024-02-21T04:36:02;9.80;91.20
64468;DHT22;50853;46.836;16.820;2024-02-21T04:38:31;9.80;91.10
64468;DHT22;50853;46.836;16.820;2024-02-21T04:40:57;9.80;91.10
64468;DHT22;50853;46.836;16.820;2024-02-21T04:43:24;9.80;91.30
64468;DHT22;50853;46.836;16.820;2024-02-21T04:45:50;9.80;91.50
64468;DHT22;50853;46.836;16.820;2024-02-21T04:48:16;9.80;91.30
64468;DHT22;50853;46.836;16.820;2024-02-21T04:50:42;9.80;91.10
64468;DHT22;50853;46.836;16.820;2024-02-21T04:53:08;9.70;91.30
64468;DHT22;50853;46.836;16.820;2024-02-21T04:55:33;9.80;91.30
64468;DHT22;50853;46.836;16.820;2024-02-21T04:57:59;9.70;91.40
64468;DHT22;50853;46.836;16.820;2024-02-21T05:00:28;9.80;91.50
64468;DHT22;50853;46.836;16.820;2024-02-21T05:02:53;9.80;91.20
64468;DHT22;50853;46.836;16.820;2024-02-21T05:05:19;9.70;91.40
64468;DHT22;50853;46.836;16.820;2024-02-21T05:07:45;9.70;91.50
64468;DHT22;50853;46.836;16.820;2024-02-21T05:10:11;9.70;91.40
64468;DHT22;50853;46.836;16.820;2024-02-21T05:12:36;9.70;91.40
64468;DHT22;50853;46.836;16.820;2024-02-21T05:15:03;9.70;91.50
64468;DHT22;50853;46.836;16.820;2024-02-21T05:17:29;9.70;91.10
64468;DHT22;50853;46.836;16.820;2024-02-21T05:19:55;9.70;91.40
64468;DHT22;50853;46.836;16.820;2024-02-21T05:22:20;9.70;91.60
64468;DHT22;50853;46.836;16.820;2024-02-21T05:24:46;9.70;91.40
64468;DHT22;50853;46.836;16.820;2024-02-21T05:27:12;9.70;91.60
64468;DHT22;50853;46.836;16.820;2024-02-21T05:29:38;9.70;91.60
64468;DHT22;50853;46.836;16.820;2024-02-21T05:32:04;9.70;91.60
64468;DHT22;50853;46.836;16.820;2024-02-21T05:34:30;9.70;91.60
64468;DHT22;50853;46.836;16.820;2024-02-21T05:36:56;9.70;91.20
64468;DHT22;50853;46.836;16.820;2024-02-21T05:39:23;9.70;91.50
64468;DHT22;50853;46.836;16.820;2024-02-21T05:41:49;9.70;91.50
64468;DHT22;50853;46.836;16.820;2024-02-21T05:44:16;9.70;91.80
64468;DHT22;50853;46.836;16.820;2024-02-21T05:46:42;9.70;91.60
64468;DHT22;50853;46.836;16.820;2024-02-21T05:49:08;9.70;91.50
64468;DHT22;50853;46.836;16.820;2024-02-21T05:51:34;9.70;91.50
64468;DHT22;50853;46.836;16.820;2024-02-21T05:54:00;9.70;91.50
64468;DHT22;50853;46.836;16.820;2024-02-21T05:56:26;9.70;91.60
64468;DHT22;50853;46.836;16.820;2024-02-21T05:58:52;9.70;91.20
64468;DHT22;50853;46.836;16.820;2024-02-21T06:01:18;9.70;91.40
64468;DHT22;50853;46.836;16.820;2024-02-21T06:03:44;9.70;91.50
64468;DHT22;50853;46.836;16.820;2024-02-21T06:06:10;9.60;91.50
64468;DHT22;50853;46.836;16.820;2024-02-21T06:08:36;9.70;91.60
64468;DHT22;50853;46.836;16.820;2024-02-21T06:11:02;9.70;91.70
64468;DHT22;50853;46.836;16.820;2024-02-21T06:13:27;9.70;91.80
64468;DHT22;50853;46.836;16.820;2024-02-21T06:15:53;9.60;91.70
64468;DHT22;50853;46.836;16.820;2024-02-21T06:18:20;9.60;91.90
64468;DHT22;50853;46.836;16.820;2024-02-21T06:20:46;9.60;91.90
64468;DHT22;50853;46.836;16.820;2024-02-21T06:23:12;9.60;91.90
64468;DHT22;50853;46.836;16.820;2024-02-21T06:25:39;9.60;91.90
64468;DHT22;50853;46.836;16.820;2024-02-21T06:28:05;9.70;91.80
64468;DHT22;50853;46.836;16.820;2024-02-21T06:30:31;9.60;91.80
64468;DHT22;50853;46.836;16.820;2024-02-21T06:32:57;9.60;91.90
64468;DHT22;50853;46.836;16.820;2024-02-21T06:35:25;9.60;91.80
64468;DHT22;50853;46.836;16.820;2024-02-21T06:37:53;9.60;91.80
64468;DHT22;50853;46.836;16.820;2024-02-21T06:40:22;9.60;91.70
64468;DHT22;50853;46.836;16.820;2024-02-21T06:42:49;9.60;91.70
64468;DHT22;50853;46.836;16.820;2024-02-21T06:45:15;9.60;91.40
64468;DHT22;50853;46.836;16.820;2024-02-21T06:47:41;9.70;92.00
64468;DHT22;50853;46.836;16.820;2024-02-21T06:50:08;9.60;91.60
64468;DHT22;50853;46.836;16.820;2024-02-21T06:52:34;9.80;91.70
64468;DHT22;50853;46.836;16.820;2024-02-21T06:55:00;9.60;91.60
64468;DHT22;50853;46.836;16.820;2024-02-21T06:57:26;9.60;91.80
64468;DHT22;50853;46.836;16.820;2024-02-21T06:59:52;9.60;91.50
64468;DHT22;50853;46.836;16.820;2024-02-21T07:02:18;9.60;91.60
64468;DHT22;50853;46.836;16.820;2024-02-21T07:04:44;9.60;91.70
64468;DHT22;50853;46.836;16.820;2024-02-21T07:07:09;9.60;91.50
64468;DHT22;50853;46.836;16.820;2024-02-21T07:09:35;9.60;91.50
64468;DHT22;50853;46.836;16.820;2024-02-21T07:12:01;9.60;91.30
64468;DHT22;50853;46.836;16.820;2024-02-21T07:14:30;9.60;91.20
64468;DHT22;50853;46.836;16.820;2024-02-21T07:29:04;9.70;91.10
64468;DHT22;50853;46.836;16.820;2024-02-21T07:31:30;9.70;91.00
64468;DHT22;50853;46.836;16.820;2024-02-21T07:33:56;9.70;91.00
64468;DHT22;50853;46.836;16.820;2024-02-21T07:36:30;9.60;90.90
64468;DHT22;50853;46.836;16.820;2024-02-21T07:38:56;9.60;90.90
64468;DHT22;50853;46.836;16.820;2024-02-21T07:41:22;9.70;91.00
64468;DHT22;50853;46.836;16.820;2024-02-21T07:43:48;9.70;90.80
64468;DHT22;50853;46.836;16.820;2024-02-21T07:46:14;9.70;90.90
64468;DHT22;50853;46.836;16.820;2024-02-21T07:48:40;9.70;90.90
64468;DHT22;50853;46.836;16.820;2024-02-21T07:51:06;9.70;90.90
64468;DHT22;50853;46.836;16.820;2024-02-21T07:53:31;9.70;91.00
64468;DHT22;50853;46.836;16.820;2024-02-21T07:55:57;9.70;90.90
64468;DHT22;50853;46.836;16.820;2024-02-21T07:58:23;9.70;90.90
64468;DHT22;50853;46.836;16.820;2024-02-21T08:00:49;9.70;90.80
64468;DHT22;50853;46.836;16.820;2024-02-21T08:03:15;9.70;90.90
64468;DHT22;50853;46.836;16.820;2024-02-21T08:05:43;9.70;91.00
64468;DHT22;50853;46.836;16.820;2024-02-21T08:08:10;9.70;91.00
64468;DHT22;50853;46.836;16.820;2024-02-21T08:10:36;9.70;90.90
64468;DHT22;50853;46.836;16.820;2024-02-21T08:13:02;9.80;90.90
64468;DHT22;50853;46.836;16.820;2024-02-21T08:15:28;9.70;90.90
64468;DHT22;50853;46.836;16.820;2024-02-21T08:17:56;9.70;90.90
64468;DHT22;50853;46.836;16.820;2024-02-21T08:20:25;9.70;91.00
64468;DHT22;50853;46.836;16.820;2024-02-21T08:22:51;9.70;90.90
64468;DHT22;50853;46.836;16.820;2024-02-21T08:25:17;9.70;90.90
64468;DHT22;50853;46.836;16.820;2024-02-21T08:27:43;9.70;90.90
64468;DHT22;50853;46.836;16.820;2024-02-21T08:30:10;9.70;91.20
64468;DHT22;50853;46.836;16.820;2024-02-21T08:32:36;9.70;91.00
64468;DHT22;50853;46.836;16.820;2024-02-21T08:35:02;9.70;91.00
64468;DHT22;50853;46.836;16.820;2024-02-21T08:37:28;9.70;91.00
64468;DHT22;50853;46.836;16.820;2024-02-21T08:39:54;9.70;90.90
64468;DHT22;50853;46.836;16.820;2024-02-21T08:42:20;9.70;91.00
64468;DHT22;50853;46.836;16.820;2024-02-21T08:44:46;9.70;91.00
64468;DHT22;50853;46.836;16.820;2024-02-21T08:47:12;9.70;91.00
64468;DHT22;50853;46.836;16.820;2024-02-21T08:49:38;9.70;91.00
64468;DHT22;50853;46.836;16.820;2024-02-21T08:52:04;9.70;91.00
64468;DHT22;50853;46.836;16.820;2024-02-21T08:54:31;9.70;91.00
64468;DHT22;50853;46.836;16.820;2024-02-21T08:56:58;9.70;91.00
64468;DHT22;50853;46.836;16.820;2024-02-21T08:59:24;9.70;90.90
64468;DHT22;50853;46.836;16.820;2024-02-21T09:01:52;9.80;91.00
64468;DHT22;50853;46.836;16.820;2024-02-21T09:04:20;9.80;90.90
64468;DHT22;50853;46.836;16.820;2024-02-21T09:06:46;9.70;90.90
64468;DHT22;50853;46.836;16.820;2024-02-21T09:09:12;9.80;90.80
64468;DHT22;50853;46.836;16.820;2024-02-21T09:11:38;9.90;90.60
64468;DHT22;50853;46.836;16.820;2024-02-21T09:14:05;9.90;90.60
64468;DHT22;50853;46.836;16.820;2024-02-21T09:16:34;9.90;90.70
64468;DHT22;50853;46.836;16.820;2024-02-21T09:19:00;9.90;90.60
64468;DHT22;50853;46.836;16.820;2024-02-21T09:21:26;9.90;90.60
64468;DHT22;50853;46.836;16.820;2024-02-21T09:23:53;10.00;90.50
64468;DHT22;50853;46.836;16.820;2024-02-21T09:26:19;10.00;90.40
64468;DHT22;50853;46.836;16.820;2024-02-21T09:28:44;10.00;90.40
64468;DHT22;50853;46.836;16.820;2024-02-21T09:31:10;10.00;90.40
64468;DHT22;50853;46.836;16.820;2024-02-21T09:33:36;10.00;90.30
64468;DHT22;50853;46.836;16.820;2024-02-21T09:36:03;10.10;90.40
64468;DHT22;50853;46.836;16.820;2024-02-21T09:38:31;10.10;90.30
64468;DHT22;50853;46.836;16.820;2024-02-21T09:41:16;10.10;90.20
64468;DHT22;50853;46.836;16.820;2024-02-21T09:43:43;10.20;90.10
64468;DHT22;50853;46.836;16.820;2024-02-21T09:46:18;10.20;90.00
64468;DHT22;50853;46.836;16.820;2024-02-21T09:48:53;10.30;90.00
64468;DHT22;50853;46.836;16.820;2024-02-21T09:51:23;10.20;90.10
64468;DHT22;50853;46.836;16.820;2024-02-21T09:53:50;10.30;90.00
64468;DHT22;50853;46.836;16.820;2024-02-21T09:56:16;10.30;90.00
64468;DHT22;50853;46.836;16.820;2024-02-21T09:58:42;10.30;89.80
64468;DHT22;50853;46.836;16.820;2024-02-21T10:01:08;10.40;89.80
64468;DHT22;50853;46.836;16.820;2024-02-21T10:03:34;10.40;89.70
64468;DHT22;50853;46.836;16.820;2024-02-21T10:06:00;10.40;89.70
64468;DHT22;50853;46.836;16.820;2024-02-21T10:08:26;10.40;89.70
64468;DHT22;50853;46.836;16.820;2024-02-21T10:10:52;10.40;89.50
64468;DHT22;50853;46.836;16.820;2024-02-21T10:13:29;10.40;89.50
64468;DHT22;50853;46.836;16.820;2024-02-21T10:16:21;10.40;89.60
64468;DHT22;50853;46.836;16.820;2024-02-21T10:18:47;10.50;89.30
64468;DHT22;50853;46.836;16.820;2024-02-21T10:21:12;10.50;89.20
64468;DHT22;50853;46.836;16.820;2024-02-21T10:23:46;10.50;89.20
64468;DHT22;50853;46.836;16.820;2024-02-21T10:26:13;10.50;89.10
64468;DHT22;50853;46.836;16.820;2024-02-21T10:28:39;10.50;89.10
64468;DHT22;50853;46.836;16.820;2024-02-21T10:31:11;10.60;88.70
64468;DHT22;50853;46.836;16.820;2024-02-21T10:33:37;10.70;88.20
64468;DHT22;50853;46.836;16.820;2024-02-21T10:36:10;10.80;88.30
64468;DHT22;50853;46.836;16.820;2024-02-21T10:38:37;10.90;87.40
64468;DHT22;50853;46.836;16.820;2024-02-21T10:41:07;11.00;86.70
64468;DHT22;50853;46.836;16.820;2024-02-21T10:43:40;11.00;86.30
64468;DHT22;50853;46.836;16.820;2024-02-21T10:46:09;11.20;86.20
64468;DHT22;50853;46.836;16.820;2024-02-21T10:48:43;11.20;85.60
64468;DHT22;50853;46.836;16.820;2024-02-21T10:51:19;11.20;85.40
64468;DHT22;50853;46.836;16.820;2024-02-21T10:56:32;11.30;84.60
64468;DHT22;50853;46.836;16.820;2024-02-21T10:59:07;11.40;84.70
64468;DHT22;50853;46.836;16.820;2024-02-21T11:01:33;11.40;84.40
64468;DHT22;50853;46.836;16.820;2024-02-21T11:04:11;11.50;83.90
64468;DHT22;50853;46.836;16.820;2024-02-21T11:06:39;11.50;83.90
64468;DHT22;50853;46.836;16.820;2024-02-21T11:09:10;11.60;83.60
64468;DHT22;50853;46.836;16.820;2024-02-21T11:11:42;11.60;83.50
64468;DHT22;50853;46.836;16.820;2024-02-21T11:14:18;11.70;83.70
64468;DHT22;50853;46.836;16.820;2024-02-21T11:16:45;11.70;83.50
64468;DHT22;50853;46.836;16.820;2024-02-21T11:19:22;11.80;83.20
64468;DHT22;50853;46.836;16.820;2024-02-21T11:21:48;11.80;82.60
64468;DHT22;50853;46.836;16.820;2024-02-21T11:24:36;11.80;82.60
64468;DHT22;50853;46.836;16.820;2024-02-21T11:27:11;11.90;82.40
64468;DHT22;50853;46.836;16.820;2024-02-21T11:30:03;12.00;82.30
64468;DHT22;50853;46.836;16.820;2024-02-21T11:32:31;12.00;82.40
64468;DHT22;50853;46.836;16.820;2024-02-21T11:37:27;12.10;81.70
64468;DHT22;50853;46.836;16.820;2024-02-21T11:39:57;12.20;81.60
64468;DHT22;50853;46.836;16.820;2024-02-21T11:42:28;12.20;81.50
64468;DHT22;50853;46.836;16.820;2024-02-21T11:44:55;12.20;81.20
64468;DHT22;50853;46.836;16.820;2024-02-21T11:47:24;12.30;80.80
64468;DHT22;50853;46.836;16.820;2024-02-21T11:49:50;12.30;80.60
64468;DHT22;50853;46.836;16.820;2024-02-21T11:52:23;12.30;80.10
64468;DHT22;50853;46.836;16.820;2024-02-21T11:54:53;12.30;80.70
64468;DHT22;50853;46.836;16.820;2024-02-21T11:57:20;12.20;81.00
64468;DHT22;50853;46.836;16.820;2024-02-21T11:59:46;12.20;81.20
64468;DHT22;50853;46.836;16.820;2024-02-21T12:02:13;12.20;81.60
64468;DHT22;50853;46.836;16.820;2024-02-21T12:04:39;12.20;81.80
64468;DHT22;50853;46.836;16.820;2024-02-21T12:07:05;12.20;81.40
64468;DHT22;50853;46.836;16.820;2024-02-21T12:09:31;12.20;81.00
64468;DHT22;50853;46.836;16.820;2024-02-21T12:12:00;12.20;81.30
64468;DHT22;50853;46.836;16.820;2024-02-21T12:14:27;12.20;81.50
64468;DHT22;50853;46.836;16.820;2024-02-21T12:16:54;12.20;81.40
64468;DHT22;50853;46.836;16.820;2024-02-21T12:19:20;12.30;81.30
64468;DHT22;50853;46.836;16.820;2024-02-21T12:21:48;12.40;80.20
64468;DHT22;50853;46.836;16.820;2024-02-21T12:26:42;12.40;80.40
64468;DHT22;50853;46.836;16.820;2024-02-21T12:29:08;12.40;80.20
64468;DHT22;50853;46.836;16.820;2024-02-21T12:31:38;12.40;80.20
64468;DHT22;50853;46.836;16.820;2024-02-21T12:34:04;12.40;80.00
64468;DHT22;50853;46.836;16.820;2024-02-21T12:36:36;12.50;79.60
64468;DHT22;50853;46.836;16.820;2024-02-21T12:39:02;12.50;79.50
64468;DHT22;50853;46.836;16.820;2024-02-21T12:41:30;12.50;79.10
64468;DHT22;50853;46.836;16.820;2024-02-21T12:43:58;12.50;79.20
64468;DHT22;50853;46.836;16.820;2024-02-21T12:46:23;12.50;79.70
64468;DHT22;50853;46.836;16.820;2024-02-21T12:48:50;12.50;79.80
64468;DHT22;50853;46.836;16.820;2024-02-21T12:51:16;12.50;79.60
64468;DHT22;50853;46.836;16.820;2024-02-21T12:53:47;12.60;79.90
64468;DHT22;50853;46.836;16.820;2024-02-21T12:56:16;12.60;79.90
64468;DHT22;50853;46.836;16.820;2024-02-21T12:58:42;12.60;80.00
64468;DHT22;50853;46.836;16.820;2024-02-21T13:01:08;12.70;79.60
64468;DHT22;50853;46.836;16.820;2024-02-21T13:03:34;12.90;77.70
64468;DHT22;50853;46.836;16.820;2024-02-21T13:05:59;13.10;76.50
64468;DHT22;50853;46.836;16.820;2024-02-21T13:08:25;13.20;76.10
64468;DHT22;50853;46.836;16.820;2024-02-21T13:10:51;13.10;76.10
64468;DHT22;50853;46.836;16.820;2024-02-21T13:13:17;13.20;76.20
64468;DHT22;50853;46.836;16.820;2024-02-21T13:15:44;13.60;74.10
64468;DHT22;50853;46.836;16.820;2024-02-21T13:18:10;14.20;71.10
64468;DHT22;50853;46.836;16.820;2024-02-21T13:20:36;14.50;69.10
64468;DHT22;50853;46.836;16.820;2024-02-21T13:23:03;14.60;68.70
64468;DHT22;50853;46.836;16.820;2024-02-21T13:25:28;14.40;69.50
64468;DHT22;50853;46.836;16.820;2024-02-21T13:27:55;14.50;69.60
64468;DHT22;50853;46.836;16.820;2024-02-21T13:30:21;14.80;68.50
64468;DHT22;50853;46.836;16.820;2024-02-21T13:32:47;15.10;67.20
64468;DHT22;50853;46.836;16.820;2024-02-21T13:35:13;15.30;66.30
64468;DHT22;50853;46.836;16.820;2024-02-21T13:37:41;15.10;66.80
64468;DHT22;50853;46.836;16.820;2024-02-21T13:40:07;14.80;68.20
64468;DHT22;50853;46.836;16.820;2024-02-21T13:42:37;14.80;68.30
64468;DHT22;50853;46.836;16.820;2024-02-21T13:45:05;15.10;67.10
64468;DHT22;50853;46.836;16.820;2024-02-21T13:47:31;14.90;67.40
64468;DHT22;50853;46.836;16.820;2024-02-21T13:49:58;14.30;69.40
64468;DHT22;50853;46.836;16.820;2024-02-21T13:52:24;14.00;71.60
64468;DHT22;50853;46.836;16.820;2024-02-21T13:54:52;13.70;73.20
64468;DHT22;50853;46.836;16.820;2024-02-21T13:57:18;13.50;74.30
64468;DHT22;50853;46.836;16.820;2024-02-21T13:59:44;13.30;75.30
64468;DHT22;50853;46.836;16.820;2024-02-21T14:02:10;13.20;76.20
64468;DHT22;50853;46.836;16.820;2024-02-21T14:04:35;13.10;76.70
64468;DHT22;50853;46.836;16.820;2024-02-21T14:07:01;13.10;77.20
64468;DHT22;50853;46.836;16.820;2024-02-21T14:09:28;13.10;77.50
64468;DHT22;50853;46.836;16.820;2024-02-21T14:11:56;13.00;78.00
64468;DHT22;50853;46.836;16.820;2024-02-21T14:14:22;12.80;78.60
64468;DHT22;50853;46.836;16.820;2024-02-21T14:16:48;12.80;78.90
64468;DHT22;50853;46.836;16.820;2024-02-21T14:19:14;12.80;79.40
64468;DHT22;50853;46.836;16.820;2024-02-21T14:21:40;12.70;79.70
64468;DHT22;50853;46.836;16.820;2024-02-21T14:24:06;12.60;80.00
64468;DHT22;50853;46.836;16.820;2024-02-21T14:26:32;12.60;80.40
64468;DHT22;50853;46.836;16.820;2024-02-21T14:28:58;12.50;80.80
64468;DHT22;50853;46.836;16.820;2024-02-21T14:31:24;12.50;81.00
64468;DHT22;50853;46.836;16.820;2024-02-21T14:33:53;12.50;81.30
64468;DHT22;50853;46.836;16.820;2024-02-21T14:36:19;12.40;81.40
64468;DHT22;50853;46.836;16.820;2024-02-21T14:38:45;12.40;81.70
64468;DHT22;50853;46.836;16.820;2024-02-21T14:41:11;12.40;82.10
64468;DHT22;50853;46.836;16.820;2024-02-21T14:43:39;12.30;82.30
64468;DHT22;50853;46.836;16.820;2024-02-21T14:46:05;12.30;82.60
64468;DHT22;50853;46.836;16.820;2024-02-21T14:48:32;12.30;82.70
64468;DHT22;50853;46.836;16.820;2024-02-21T14:50:58;12.30;82.90
64468;DHT22;50853;46.836;16.820;2024-02-21T14:53:24;12.20;83.40
64468;DHT22;50853;46.836;16.820;2024-02-21T14:55:50;12.20;83.50
64468;DHT22;50853;46.836;16.820;2024-02-21T14:58:19;12.20;83.80
64468;DHT22;50853;46.836;16.820;2024-02-21T15:00:46;12.10;83.50
64468;DHT22;50853;46.836;16.820;2024-02-21T15:03:16;12.10;80.80
64468;DHT22;50853;46.836;16.820;2024-02-21T15:05:46;12.00;74.10
64468;DHT22;50853;46.836;16.820;2024-02-21T15:08:15;12.00;66.00
64468;DHT22;50853;46.836;16.820;2024-02-21T15:10:43;12.00;74.40
64468;DHT22;50853;46.836;16.820;2024-02-21T15:13:09;12.10;73.80
64468;DHT22;50853;46.836;16.820;2024-02-21T15:15:35;12.00;72.40
64468;DHT22;50853;46.836;16.820;2024-02-21T15:18:01;12.00;75.80
64468;DHT22;50853;46.836;16.820;2024-02-21T15:20:27;11.90;75.10
64468;DHT22;50853;46.836;16.820;2024-02-21T15:22:53;11.90;73.80
64468;DHT22;50853;46.836;16.820;2024-02-21T15:25:19;11.90;73.10
64468;DHT22;50853;46.836;16.820;2024-02-21T15:27:47;11.90;73.20
64468;DHT22;50853;46.836;16.820;2024-02-21T15:30:13;12.00;72.10
64468;DHT22;50853;46.836;16.820;2024-02-21T15:32:40;12.00;71.60
64468;DHT22;50853;46.836;16.820;2024-02-21T15:35:09;12.00;70.90
64468;DHT22;50853;46.836;16.820;2024-02-21T15:37:36;12.10;71.10
64468;DHT22;50853;46.836;16.820;2024-02-21T15:40:02;12.10;72.60